Weather observations for the past three days for
Sault Ste Marie, Chippewa County International Airport
Metric (Imperial)
Date Time (edt) Wind (kph) Vis. (km) Weather Sky Cond. Temperature (ºC) Relative Humidity Wind Chill (°C) Heat Index (°C) Pressure Precipitation (cm)
Air Dwpt 6 hour altimeter (cm) sea level (mb) 1 hr 3 hr 6 hr
Max. Min.
02 01:56 Calm 11.27 Overcast BKN004 OVC007 18.9 18.9 20.6 18.3 100% 75.92 1011.6
02 00:56 Calm 4.83 Fog/Mist BKN004 OVC016 18.9 18.9 100% 75.92 1011.8
01 23:56 S 13 12.87 A Few Clouds FEW014 18.3 18.3 100% 75.9 1011.3
01 22:56 SE 15 12.87 Fair CLR 18.9 18.3 96% 75.9 1011.5
01 21:56 SE 15 12.87 Fair CLR 18.3 18.3 100% 75.9 1011.6
01 20:56 S 11 16.09 Fair CLR 20.6 20 96% 75.92 1011.6
01 19:56 Calm 16.09 Fair CLR 24.4 21.1 27.8 22.2 82% 25 75.92 1011.9
01 18:56 S 11 16.09 Fair CLR 27.2 20.6 67% 29 75.92 1011.7
01 17:56 S 13 16.09 Fair CLR 27.8 18.9 58% 29 75.92 1011.8
01 16:56 S 13 16.09 Fair CLR 27.8 20.6 65% 30 75.95 1012.1
01 15:56 Vrbl 11 16.09 Fair CLR 26.7 20.6 69% 28 76 1012.6
01 14:56 Vrbl 9 16.09 Mostly Cloudy BKN008 24.4 20 77% 25 76.05 1013.4
01 13:56 S 7 16.09 Overcast OVC006 22.2 20 22.2 18.9 87% 76.07 1013.8
01 12:56 SW 7 16.09 Overcast OVC006 22.2 20.6 91% 76.1 1014.2
01 10:56 SE 6 14.48 Overcast OVC004 20.6 20 96% 76.05 1013.6
01 09:56 Calm 6.44 Fog/Mist OVC002 19.4 19.4 100% 76.07 1013.8
01 08:56 Calm 1.61 Fog/Mist OVC002 19.4 19.4 100% 76.07 1013.9
01 07:56 Calm 0.40 Fog OVC002 18.9 18.9 18.9 18.9 100% 76.05 1013.4
01 06:56 Calm 0.40 Fog OVC002 18.9 18.9 100% 76.02 1013.1
01 05:56 NW 7 1.61 Fog/Mist OVC002 18.9 18.9 100% 76.02 1013.1
01 04:56 Calm 0.80 Fog OVC002 18.9 18.9 100% 76 1012.8
01 03:56 Calm 2.01 Fog/Mist OVC002 18.9 18.9 100% 75.97 1012.5
01 02:56 Calm 0.40 Fog OVC002 18.9 18.9 100% 75.95 1012.3
01 01:56 Calm 1.21 Fog/Mist OVC002 18.9 18.9 19.4 18.9 100% 75.95 1012.0
01 00:56 SE 11 2.41 Fog/Mist OVC002 19.4 19.4 100% 75.92 1011.9
31 23:56 E 6 2.41 Fog/Mist OVC002 19.4 19.4 100% 75.95 1012.3
31 22:56 NE 7 8.05 Fog/Mist OVC002 19.4 19.4 100% 75.97 1012.6
31 21:56 E 11 4.83 Fog/Mist OVC002 19.4 19.4 100% 75.97 1012.5
31 20:56 E 11 4.83 Fog/Mist OVC002 19.4 18.9 97% 75.97 1012.6
31 19:56 E 15 9.66 Fog/Mist OVC004 19.4 18.9 20.6 18.9 97% 75.95 0.0
31 18:56 E 17 12.87 Overcast OVC004 20 19.4 96% 75.95 0.0
31 17:56 E 13 14.48 Overcast OVC004 20 19.4 96% 75.97 0.0
31 16:56 E 17 16.09 Overcast OVC004 20.6 19.4 93% 75.95 1012.1
31 15:56 E 17 11.27 Overcast OVC002 20 19.4 96% 76 1012.8
31 14:56 E 13 6.44 Fog/Mist OVC002 20 19.4 96% 76.02 1013.3
31 13:56 E 19 2.41 Fog/Mist OVC002 19.4 18.9 19.4 18.3 97% 76.05 1013.4
31 12:56 E 17 0.80 Fog OVC002 18.3 18.3 100% 76.07 1014.1
31 11:56 E 15 0.40 Light Rain Fog OVC002 18.3 18.3 100% 76.1 1014.4
31 10:56 SE 17 0.40 Fog OVC002 18.3 18.3 100% 76.15 1014.9
31 09:56 SE 17 2.01 Fog/Mist OVC002 18.3 18.3 100% 76.17 1015.1
31 08:56 SE 19 1.61 Fog/Mist OVC003 18.3 18.3 100% 76.12 1014.8
31 07:56 E 19 0.40 Fog OVC003 0 0 0% 76.07 0.0
31 06:56 E 20 0.40 Fog OVC003 0 0 0% 76.1 0.0
31 05:56 SE 13 2.01 Light Rain OVC003 0 0 0% 76.2 0.0
31 04:56 E 15 4.02 Fog/Mist OVC003 17.8 17.8 100% 76.23 1015.9
31 03:56 E 13 8.05 Fog/Mist OVC003 17.8 17.8 100% 76.2 1015.7
31 02:56 E 17 9.66 Fog/Mist OVC003 17.8 17.8 100% 76.2 1015.8
31 01:56 E 15 12.87 Overcast OVC005 18.3 17.8 18.9 17.2 97% 76.25 1016.5
31 00:56 SE 11 16.09 Overcast BKN005 OVC019 18.3 17.8 97% 76.28 1016.7
30 23:56 SE 11 16.09 Overcast FEW003 OVC019 17.8 17.8 100% 76.25 1016.5
30 22:56 E 13 16.09 Fair CLR 17.2 17.2 100% 76.25 1016.5
30 21:56 E 11 16.09 Fair CLR 17.8 17.2 96% 76.25 1016.3
30 20:56 E 9 16.09 Mostly Cloudy BKN014 18.3 17.2 93% 76.25 1016.3
30 19:56 E 13 16.09 Overcast OVC012 18.9 17.8 19.4 18.3 93% 76.23 1015.8
30 18:56 E 13 16.09 NULL NULL 19.4 17.8 91% 76.25 1016.4
30 17:56 SE 15 16.09 Overcast BKN008 OVC014 18.9 17.8 93% 76.25 1016.3
30 16:56 E 20 16.09 Overcast OVC004 18.9 17.2 90% 76.23 1015.9
30 15:56 E 20 12.87 Overcast OVC004 18.3 17.8 97% 76.23 1015.9
30 14:56 E 19 16.09 Overcast OVC004 18.3 17.8 97% 76.25 1016.2
30 12:56 SE 13 16.09 Overcast OVC006 18.3 17.8 97% 76.25 1016.2
30 11:56 SE 17 16.09 Overcast OVC004 17.8 17.2 96% 76.25 1016.4
30 09:56 E 13 2.82 Light Rain Fog/Mist OVC004 17.2 17.2 100% 76.25 1016.3 0.13
30 08:56 E 13 6.44 Light Rain Fog/Mist OVC004 17.2 17.2 100% 76.25 1016.2
30 07:56 SE 17 16.09 Overcast BKN031 BKN065 OVC080 17.2 16.7 18.3 17.2 97% 76.2 1015.6
30 06:56 SE 17 14.48 Overcast FEW002 BKN035 OVC048 17.2 17.2 100% 76.2 1015.5
30 05:56 E 11 12.87 Overcast BKN004 BKN041 OVC048 17.2 17.2 100% 76.23 1015.9
30 04:56 E 7 16.09 Overcast OVC060 17.8 17.2 96% 76.25 1015.9
30 03:56 SE 7 16.09 Overcast FEW008 SCT049 OVC060 17.8 17.2 96% 76.25 1016.2
30 02:56 S 7 16.09 Overcast BKN008 BKN042 OVC075 17.8 17.8 100% 76.28 1016.5
Date Time (edt) Wind (kph) Vis. (km) Weather Sky Cond. Air Dwpt Max. Min. Relative Humidity Wind Chill (°C) Heat Index (°C) altimeter (cm) sea level (mb) 1 hr 3 hr 6 hr
6 hour
Temperature (ºC) Pressure Precipitation (cm)